Akron, Iowa
Current Conditions -  °F | °C
As of 9:35 AM on Saturday 22 Nov 2014 (Local Time) from KLRJ Reporting Station
Haze Haze  
Wind Chill: 29°   Ceiling: 300
Heat Index: 37°   Visibility: 1.7mi
Dew Point: 37°   Wind: 13mph
Humidity: 100%   Direction: 190°S
Pressure: 29.77"   Gusts: 18mph
Location:  42.83°N, 96.56°W
Report Text: KLRJ 221535Z AUTO 19011G16KT 1 3/4SM BR OVC003 03/03 A2977 RMK AO2
Loading
Personal Weather Stations






























Interactive Weather Map New forecast layout! Learn more

10-Day Weather Forecast

Advertisements
Track Severe Weather on mobile